sensor_id;sensor_type;location;lat;lon;timestamp;P1;durP1;ratioP1;P2;durP2;ratioP2
37535;SDS011;23379;51.554;6.736;2024-03-02T00:02:04;2.30;;;1.70;;
37535;SDS011;23379;51.554;6.736;2024-03-02T00:04:31;2.22;;;2.03;;
37535;SDS011;23379;51.554;6.736;2024-03-02T00:06:56;2.70;;;2.22;;
37535;SDS011;23379;51.554;6.736;2024-03-02T00:09:22;2.22;;;1.75;;
37535;SDS011;23379;51.554;6.736;2024-03-02T00:11:48;1.70;;;1.60;;
37535;SDS011;23379;51.554;6.736;2024-03-02T00:14:13;3.38;;;2.00;;
37535;SDS011;23379;51.554;6.736;2024-03-02T00:16:38;2.45;;;1.77;;
37535;SDS011;23379;51.554;6.736;2024-03-02T00:19:05;3.15;;;1.83;;
37535;SDS011;23379;51.554;6.736;2024-03-02T00:21:31;2.67;;;2.10;;
37535;SDS011;23379;51.554;6.736;2024-03-02T00:24:01;1.75;;;1.65;;
37535;SDS011;23379;51.554;6.736;2024-03-02T00:26:46;2.10;;;1.90;;
37535;SDS011;23379;51.554;6.736;2024-03-02T00:29:13;4.28;;;1.80;;
37535;SDS011;23379;51.554;6.736;2024-03-02T00:31:41;3.83;;;1.90;;
37535;SDS011;23379;51.554;6.736;2024-03-02T00:34:07;2.55;;;2.00;;
37535;SDS011;23379;51.554;6.736;2024-03-02T00:36:38;2.92;;;2.15;;
37535;SDS011;23379;51.554;6.736;2024-03-02T00:39:04;2.38;;;2.00;;
37535;SDS011;23379;51.554;6.736;2024-03-02T00:41:33;3.38;;;1.92;;
37535;SDS011;23379;51.554;6.736;2024-03-02T00:44:09;3.30;;;2.15;;
37535;SDS011;23379;51.554;6.736;2024-03-02T00:46:38;2.47;;;2.05;;
37535;SDS011;23379;51.554;6.736;2024-03-02T00:51:36;2.78;;;1.98;;
37535;SDS011;23379;51.554;6.736;2024-03-02T00:54:03;3.40;;;2.00;;
37535;SDS011;23379;51.554;6.736;2024-03-02T00:56:30;6.15;;;2.03;;
37535;SDS011;23379;51.554;6.736;2024-03-02T00:58:56;2.90;;;1.95;;
37535;SDS011;23379;51.554;6.736;2024-03-02T01:01:21;2.03;;;1.80;;
37535;SDS011;23379;51.554;6.736;2024-03-02T01:03:47;2.40;;;2.17;;
37535;SDS011;23379;51.554;6.736;2024-03-02T01:06:14;2.78;;;2.30;;
37535;SDS011;23379;51.554;6.736;2024-03-02T01:08:42;2.83;;;2.25;;
37535;SDS011;23379;51.554;6.736;2024-03-02T01:11:08;2.63;;;2.15;;
37535;SDS011;23379;51.554;6.736;2024-03-02T01:13:33;4.70;;;1.70;;
37535;SDS011;23379;51.554;6.736;2024-03-02T01:15:59;2.08;;;1.80;;
37535;SDS011;23379;51.554;6.736;2024-03-02T01:18:24;1.80;;;1.70;;
37535;SDS011;23379;51.554;6.736;2024-03-02T01:20:50;2.28;;;1.83;;
37535;SDS011;23379;51.554;6.736;2024-03-02T01:23:21;2.47;;;2.30;;
37535;SDS011;23379;51.554;6.736;2024-03-02T01:25:47;3.38;;;2.10;;
37535;SDS011;23379;51.554;6.736;2024-03-02T01:28:13;3.65;;;2.15;;
37535;SDS011;23379;51.554;6.736;2024-03-02T01:30:38;3.92;;;2.10;;
37535;SDS011;23379;51.554;6.736;2024-03-02T01:33:04;3.20;;;1.90;;
37535;SDS011;23379;51.554;6.736;2024-03-02T01:35:30;1.98;;;1.67;;
37535;SDS011;23379;51.554;6.736;2024-03-02T01:37:56;2.20;;;1.77;;
37535;SDS011;23379;51.554;6.736;2024-03-02T01:40:21;2.03;;;1.70;;
37535;SDS011;23379;51.554;6.736;2024-03-02T01:42:51;7.70;;;2.30;;
37535;SDS011;23379;51.554;6.736;2024-03-02T01:45:16;4.10;;;1.90;;
37535;SDS011;23379;51.554;6.736;2024-03-02T01:47:42;2.75;;;2.15;;
37535;SDS011;23379;51.554;6.736;2024-03-02T01:50:07;5.13;;;2.20;;
37535;SDS011;23379;51.554;6.736;2024-03-02T01:52:34;2.45;;;1.92;;
37535;SDS011;23379;51.554;6.736;2024-03-02T01:54:59;3.25;;;1.92;;
37535;SDS011;23379;51.554;6.736;2024-03-02T01:57:24;2.97;;;1.77;;
37535;SDS011;23379;51.554;6.736;2024-03-02T01:59:50;4.65;;;2.00;;
37535;SDS011;23379;51.554;6.736;2024-03-02T02:02:16;2.60;;;2.03;;
37535;SDS011;23379;51.554;6.736;2024-03-02T02:04:41;4.22;;;1.80;;
37535;SDS011;23379;51.554;6.736;2024-03-02T02:07:06;1.80;;;1.67;;
37535;SDS011;23379;51.554;6.736;2024-03-02T02:09:32;3.65;;;2.20;;
37535;SDS011;23379;51.554;6.736;2024-03-02T02:11:57;2.15;;;1.88;;
37535;SDS011;23379;51.554;6.736;2024-03-02T02:14:23;2.30;;;2.10;;
37535;SDS011;23379;51.554;6.736;2024-03-02T02:16:48;2.70;;;2.20;;
37535;SDS011;23379;51.554;6.736;2024-03-02T02:19:14;2.05;;;1.70;;
37535;SDS011;23379;51.554;6.736;2024-03-02T02:21:42;2.60;;;1.73;;
37535;SDS011;23379;51.554;6.736;2024-03-02T02:24:08;3.97;;;1.98;;
37535;SDS011;23379;51.554;6.736;2024-03-02T02:26:33;1.60;;;1.48;;
37535;SDS011;23379;51.554;6.736;2024-03-02T02:28:59;1.50;;;1.40;;
37535;SDS011;23379;51.554;6.736;2024-03-02T02:31:24;3.28;;;2.20;;
37535;SDS011;23379;51.554;6.736;2024-03-02T02:33:49;5.47;;;2.15;;
37535;SDS011;23379;51.554;6.736;2024-03-02T02:36:15;2.35;;;1.92;;
37535;SDS011;23379;51.554;6.736;2024-03-02T02:38:42;2.10;;;1.67;;
37535;SDS011;23379;51.554;6.736;2024-03-02T02:41:11;2.33;;;2.00;;
37535;SDS011;23379;51.554;6.736;2024-03-02T02:43:37;2.10;;;1.90;;
37535;SDS011;23379;51.554;6.736;2024-03-02T02:46:04;2.88;;;2.15;;
37535;SDS011;23379;51.554;6.736;2024-03-02T02:48:30;2.10;;;1.90;;
37535;SDS011;23379;51.554;6.736;2024-03-02T02:50:55;5.75;;;2.85;;
37535;SDS011;23379;51.554;6.736;2024-03-02T02:53:21;3.03;;;2.30;;
37535;SDS011;23379;51.554;6.736;2024-03-02T02:55:46;5.40;;;2.30;;
37535;SDS011;23379;51.554;6.736;2024-03-02T02:58:12;4.45;;;2.30;;
37535;SDS011;23379;51.554;6.736;2024-03-02T03:00:38;3.65;;;2.00;;
37535;SDS011;23379;51.554;6.736;2024-03-02T03:03:03;3.92;;;2.00;;
37535;SDS011;23379;51.554;6.736;2024-03-02T03:05:29;4.65;;;2.83;;
37535;SDS011;23379;51.554;6.736;2024-03-02T03:07:54;4.72;;;2.80;;
37535;SDS011;23379;51.554;6.736;2024-03-02T03:10:20;5.72;;;2.55;;
37535;SDS011;23379;51.554;6.736;2024-03-02T03:12:47;8.35;;;2.58;;
37535;SDS011;23379;51.554;6.736;2024-03-02T03:15:12;5.20;;;2.50;;
37535;SDS011;23379;51.554;6.736;2024-03-02T03:17:38;4.82;;;3.08;;
37535;SDS011;23379;51.554;6.736;2024-03-02T03:20:04;7.25;;;2.90;;
37535;SDS011;23379;51.554;6.736;2024-03-02T03:22:30;2.55;;;1.63;;
37535;SDS011;23379;51.554;6.736;2024-03-02T03:25:00;3.88;;;2.60;;
37535;SDS011;23379;51.554;6.736;2024-03-02T03:27:25;8.40;;;2.60;;
37535;SDS011;23379;51.554;6.736;2024-03-02T03:29:51;2.75;;;2.10;;
37535;SDS011;23379;51.554;6.736;2024-03-02T03:32:17;4.03;;;2.65;;
37535;SDS011;23379;51.554;6.736;2024-03-02T03:34:42;6.90;;;2.50;;
37535;SDS011;23379;51.554;6.736;2024-03-02T03:37:07;2.47;;;2.08;;
37535;SDS011;23379;51.554;6.736;2024-03-02T03:39:33;2.92;;;2.10;;
37535;SDS011;23379;51.554;6.736;2024-03-02T03:42:00;4.25;;;2.15;;
37535;SDS011;23379;51.554;6.736;2024-03-02T03:44:25;2.47;;;1.73;;
37535;SDS011;23379;51.554;6.736;2024-03-02T03:46:51;5.78;;;2.53;;
37535;SDS011;23379;51.554;6.736;2024-03-02T03:49:16;3.28;;;2.50;;
37535;SDS011;23379;51.554;6.736;2024-03-02T03:51:42;3.60;;;2.80;;
37535;SDS011;23379;51.554;6.736;2024-03-02T03:54:07;2.60;;;2.33;;
37535;SDS011;23379;51.554;6.736;2024-03-02T03:56:33;3.95;;;2.40;;
37535;SDS011;23379;51.554;6.736;2024-03-02T03:58:58;2.50;;;2.30;;
37535;SDS011;23379;51.554;6.736;2024-03-02T04:01:24;3.35;;;2.50;;
37535;SDS011;23379;51.554;6.736;2024-03-02T04:03:50;6.28;;;2.33;;
37535;SDS011;23379;51.554;6.736;2024-03-02T04:06:15;5.07;;;2.20;;
37535;SDS011;23379;51.554;6.736;2024-03-02T04:08:42;3.95;;;1.63;;
37535;SDS011;23379;51.554;6.736;2024-03-02T04:11:08;2.58;;;2.00;;
37535;SDS011;23379;51.554;6.736;2024-03-02T04:13:33;2.03;;;1.92;;
37535;SDS011;23379;51.554;6.736;2024-03-02T04:15:59;2.55;;;1.98;;
37535;SDS011;23379;51.554;6.736;2024-03-02T04:18:24;2.40;;;1.98;;
37535;SDS011;23379;51.554;6.736;2024-03-02T04:20:50;2.05;;;1.95;;
37535;SDS011;23379;51.554;6.736;2024-03-02T04:23:15;2.50;;;1.90;;
37535;SDS011;23379;51.554;6.736;2024-03-02T04:25:41;3.80;;;2.00;;
37535;SDS011;23379;51.554;6.736;2024-03-02T04:28:06;3.63;;;1.65;;
37535;SDS011;23379;51.554;6.736;2024-03-02T04:30:31;3.78;;;1.95;;
37535;SDS011;23379;51.554;6.736;2024-03-02T04:32:57;2.15;;;1.90;;
37535;SDS011;23379;51.554;6.736;2024-03-02T04:35:22;3.83;;;1.95;;
37535;SDS011;23379;51.554;6.736;2024-03-02T04:37:48;2.10;;;1.90;;
37535;SDS011;23379;51.554;6.736;2024-03-02T04:40:13;3.28;;;2.20;;
37535;SDS011;23379;51.554;6.736;2024-03-02T04:42:38;2.75;;;2.00;;
37535;SDS011;23379;51.554;6.736;2024-03-02T04:45:04;4.65;;;2.40;;
37535;SDS011;23379;51.554;6.736;2024-03-02T04:47:29;2.42;;;2.15;;
37535;SDS011;23379;51.554;6.736;2024-03-02T04:49:55;4.07;;;2.35;;
37535;SDS011;23379;51.554;6.736;2024-03-02T04:52:20;4.28;;;2.58;;
37535;SDS011;23379;51.554;6.736;2024-03-02T04:54:45;5.43;;;3.22;;
37535;SDS011;23379;51.554;6.736;2024-03-02T04:57:29;5.35;;;2.08;;
37535;SDS011;23379;51.554;6.736;2024-03-02T04:59:54;5.88;;;2.63;;
37535;SDS011;23379;51.554;6.736;2024-03-02T05:02:20;5.35;;;2.60;;
37535;SDS011;23379;51.554;6.736;2024-03-02T05:04:45;6.05;;;2.83;;
37535;SDS011;23379;51.554;6.736;2024-03-02T05:07:11;8.10;;;3.22;;
37535;SDS011;23379;51.554;6.736;2024-03-02T05:09:36;6.82;;;3.10;;
37535;SDS011;23379;51.554;6.736;2024-03-02T05:12:02;4.25;;;2.75;;
37535;SDS011;23379;51.554;6.736;2024-03-02T05:14:45;3.92;;;2.63;;
37535;SDS011;23379;51.554;6.736;2024-03-02T05:17:11;5.55;;;2.90;;
37535;SDS011;23379;51.554;6.736;2024-03-02T05:19:36;2.78;;;2.50;;
37535;SDS011;23379;51.554;6.736;2024-03-02T05:22:02;3.88;;;2.38;;
37535;SDS011;23379;51.554;6.736;2024-03-02T05:24:28;3.92;;;2.30;;
37535;SDS011;23379;51.554;6.736;2024-03-02T05:26:53;5.50;;;2.67;;
37535;SDS011;23379;51.554;6.736;2024-03-02T05:29:19;4.85;;;2.05;;
37535;SDS011;23379;51.554;6.736;2024-03-02T05:31:44;3.03;;;2.72;;
37535;SDS011;23379;51.554;6.736;2024-03-02T05:34:10;5.00;;;2.42;;
37535;SDS011;23379;51.554;6.736;2024-03-02T05:36:35;4.97;;;2.53;;
37535;SDS011;23379;51.554;6.736;2024-03-02T05:39:01;4.22;;;2.40;;
37535;SDS011;23379;51.554;6.736;2024-03-02T05:41:29;2.80;;;2.22;;
37535;SDS011;23379;51.554;6.736;2024-03-02T05:43:54;3.83;;;2.20;;
37535;SDS011;23379;51.554;6.736;2024-03-02T05:46:20;4.78;;;2.85;;
37535;SDS011;23379;51.554;6.736;2024-03-02T05:48:45;2.70;;;2.28;;
37535;SDS011;23379;51.554;6.736;2024-03-02T05:51:11;2.78;;;2.15;;
37535;SDS011;23379;51.554;6.736;2024-03-02T05:53:36;3.08;;;2.35;;
37535;SDS011;23379;51.554;6.736;2024-03-02T05:56:03;4.05;;;2.25;;
37535;SDS011;23379;51.554;6.736;2024-03-02T05:58:29;2.75;;;2.42;;
37535;SDS011;23379;51.554;6.736;2024-03-02T06:01:18;2.20;;;2.03;;
37535;SDS011;23379;51.554;6.736;2024-03-02T06:03:43;3.47;;;2.42;;
37535;SDS011;23379;51.554;6.736;2024-03-02T06:06:09;2.63;;;2.10;;
37535;SDS011;23379;51.554;6.736;2024-03-02T06:08:35;3.13;;;2.40;;
37535;SDS011;23379;51.554;6.736;2024-03-02T06:11:00;2.88;;;2.38;;
37535;SDS011;23379;51.554;6.736;2024-03-02T06:13:25;2.40;;;2.20;;
37535;SDS011;23379;51.554;6.736;2024-03-02T06:15:51;3.00;;;2.40;;
37535;SDS011;23379;51.554;6.736;2024-03-02T06:18:17;5.20;;;2.00;;
37535;SDS011;23379;51.554;6.736;2024-03-02T06:20:42;2.63;;;2.20;;
37535;SDS011;23379;51.554;6.736;2024-03-02T06:23:07;4.32;;;2.22;;
37535;SDS011;23379;51.554;6.736;2024-03-02T06:25:33;3.63;;;2.30;;
37535;SDS011;23379;51.554;6.736;2024-03-02T06:27:58;2.70;;;2.30;;
37535;SDS011;23379;51.554;6.736;2024-03-02T06:30:24;5.47;;;2.33;;
37535;SDS011;23379;51.554;6.736;2024-03-02T06:32:49;3.20;;;2.50;;
37535;SDS011;23379;51.554;6.736;2024-03-02T06:35:14;5.47;;;2.10;;
37535;SDS011;23379;51.554;6.736;2024-03-02T06:37:40;6.30;;;2.33;;
37535;SDS011;23379;51.554;6.736;2024-03-02T06:40:06;6.22;;;2.58;;
37535;SDS011;23379;51.554;6.736;2024-03-02T06:42:35;4.45;;;2.58;;
37535;SDS011;23379;51.554;6.736;2024-03-02T06:45:01;3.00;;;1.98;;
37535;SDS011;23379;51.554;6.736;2024-03-02T06:47:27;3.65;;;2.35;;
37535;SDS011;23379;51.554;6.736;2024-03-02T06:49:52;2.95;;;2.47;;
37535;SDS011;23379;51.554;6.736;2024-03-02T06:52:18;3.65;;;2.55;;
37535;SDS011;23379;51.554;6.736;2024-03-02T06:54:43;4.65;;;2.33;;
37535;SDS011;23379;51.554;6.736;2024-03-02T06:57:09;3.20;;;2.65;;
37535;SDS011;23379;51.554;6.736;2024-03-02T06:59:35;3.55;;;2.42;;
37535;SDS011;23379;51.554;6.736;2024-03-02T07:02:00;4.30;;;2.45;;
37535;SDS011;23379;51.554;6.736;2024-03-02T07:04:26;2.60;;;2.40;;
37535;SDS011;23379;51.554;6.736;2024-03-02T07:06:52;4.15;;;2.28;;
37535;SDS011;23379;51.554;6.736;2024-03-02T07:09:17;3.42;;;2.63;;
37535;SDS011;23379;51.554;6.736;2024-03-02T07:11:42;3.00;;;2.40;;
37535;SDS011;23379;51.554;6.736;2024-03-02T07:14:08;6.88;;;2.30;;
37535;SDS011;23379;51.554;6.736;2024-03-02T07:16:37;3.10;;;2.75;;
37535;SDS011;23379;51.554;6.736;2024-03-02T07:19:03;8.75;;;3.33;;
37535;SDS011;23379;51.554;6.736;2024-03-02T07:21:28;7.70;;;3.63;;
37535;SDS011;23379;51.554;6.736;2024-03-02T07:23:54;9.38;;;4.00;;
37535;SDS011;23379;51.554;6.736;2024-03-02T07:26:19;9.07;;;3.75;;
37535;SDS011;23379;51.554;6.736;2024-03-02T07:28:48;7.00;;;3.05;;
37535;SDS011;23379;51.554;6.736;2024-03-02T07:31:14;6.95;;;3.03;;
37535;SDS011;23379;51.554;6.736;2024-03-02T07:33:40;7.93;;;3.17;;
37535;SDS011;23379;51.554;6.736;2024-03-02T07:36:06;5.75;;;2.63;;
37535;SDS011;23379;51.554;6.736;2024-03-02T07:38:32;7.50;;;3.30;;
37535;SDS011;23379;51.554;6.736;2024-03-02T07:40:59;4.45;;;2.63;;
37535;SDS011;23379;51.554;6.736;2024-03-02T07:43:25;3.80;;;2.42;;
37535;SDS011;23379;51.554;6.736;2024-03-02T07:45:50;3.30;;;2.13;;
37535;SDS011;23379;51.554;6.736;2024-03-02T07:48:16;3.28;;;2.50;;
37535;SDS011;23379;51.554;6.736;2024-03-02T07:50:41;5.20;;;2.58;;
37535;SDS011;23379;51.554;6.736;2024-03-02T07:53:08;2.95;;;2.47;;
37535;SDS011;23379;51.554;6.736;2024-03-02T07:55:33;4.88;;;2.80;;
37535;SDS011;23379;51.554;6.736;2024-03-02T07:58:00;5.35;;;2.75;;
37535;SDS011;23379;51.554;6.736;2024-03-02T08:00:26;7.97;;;2.70;;
37535;SDS011;23379;51.554;6.736;2024-03-02T08:02:52;3.97;;;2.38;;
37535;SDS011;23379;51.554;6.736;2024-03-02T08:05:17;5.85;;;3.25;;
37535;SDS011;23379;51.554;6.736;2024-03-02T08:07:46;4.57;;;2.65;;
37535;SDS011;23379;51.554;6.736;2024-03-02T08:10:12;7.95;;;2.88;;
37535;SDS011;23379;51.554;6.736;2024-03-02T08:12:38;4.22;;;3.13;;
37535;SDS011;23379;51.554;6.736;2024-03-02T08:15:03;5.65;;;3.13;;
37535;SDS011;23379;51.554;6.736;2024-03-02T08:17:29;11.25;;;4.07;;
37535;SDS011;23379;51.554;6.736;2024-03-02T08:19:55;8.13;;;4.25;;
37535;SDS011;23379;51.554;6.736;2024-03-02T08:22:21;6.30;;;3.90;;
37535;SDS011;23379;51.554;6.736;2024-03-02T08:24:47;6.88;;;3.10;;
37535;SDS011;23379;51.554;6.736;2024-03-02T08:27:12;7.07;;;3.72;;
37535;SDS011;23379;51.554;6.736;2024-03-02T08:29:38;7.78;;;3.80;;
37535;SDS011;23379;51.554;6.736;2024-03-02T08:32:04;11.32;;;5.53;;
37535;SDS011;23379;51.554;6.736;2024-03-02T08:34:31;11.25;;;5.63;;
37535;SDS011;23379;51.554;6.736;2024-03-02T08:36:56;9.80;;;4.28;;
37535;SDS011;23379;51.554;6.736;2024-03-02T08:39:21;10.70;;;4.30;;
37535;SDS011;23379;51.554;6.736;2024-03-02T08:41:47;8.13;;;3.90;;
37535;SDS011;23379;51.554;6.736;2024-03-02T08:44:13;6.70;;;3.50;;
37535;SDS011;23379;51.554;6.736;2024-03-02T08:46:39;3.85;;;2.85;;
37535;SDS011;23379;51.554;6.736;2024-03-02T08:49:04;11.85;;;3.17;;
37535;SDS011;23379;51.554;6.736;2024-03-02T08:51:30;5.20;;;2.60;;
37535;SDS011;23379;51.554;6.736;2024-03-02T08:53:56;7.10;;;2.60;;
37535;SDS011;23379;51.554;6.736;2024-03-02T08:56:23;4.32;;;1.98;;
37535;SDS011;23379;51.554;6.736;2024-03-02T08:58:49;5.60;;;2.67;;
37535;SDS011;23379;51.554;6.736;2024-03-02T09:01:14;4.18;;;2.22;;
37535;SDS011;23379;51.554;6.736;2024-03-02T09:03:41;5.80;;;2.70;;
37535;SDS011;23379;51.554;6.736;2024-03-02T09:06:09;5.28;;;2.40;;
37535;SDS011;23379;51.554;6.736;2024-03-02T09:08:35;5.43;;;2.30;;
37535;SDS011;23379;51.554;6.736;2024-03-02T09:11:01;7.63;;;2.65;;
37535;SDS011;23379;51.554;6.736;2024-03-02T09:13:31;3.03;;;1.88;;
37535;SDS011;23379;51.554;6.736;2024-03-02T09:15:57;7.25;;;2.20;;
37535;SDS011;23379;51.554;6.736;2024-03-02T09:18:22;5.55;;;2.47;;
37535;SDS011;23379;51.554;6.736;2024-03-02T09:20:48;4.07;;;2.33;;
37535;SDS011;23379;51.554;6.736;2024-03-02T09:23:13;7.18;;;2.92;;
37535;SDS011;23379;51.554;6.736;2024-03-02T09:25:39;6.35;;;2.40;;
37535;SDS011;23379;51.554;6.736;2024-03-02T09:28:04;3.33;;;2.45;;
37535;SDS011;23379;51.554;6.736;2024-03-02T09:30:30;8.13;;;2.83;;
37535;SDS011;23379;51.554;6.736;2024-03-02T09:32:55;5.97;;;2.35;;
37535;SDS011;23379;51.554;6.736;2024-03-02T09:35:21;6.03;;;2.13;;
37535;SDS011;23379;51.554;6.736;2024-03-02T09:37:46;5.15;;;2.00;;
37535;SDS011;23379;51.554;6.736;2024-03-02T09:40:12;5.90;;;2.28;;
37535;SDS011;23379;51.554;6.736;2024-03-02T09:42:38;5.32;;;2.13;;
37535;SDS011;23379;51.554;6.736;2024-03-02T09:45:05;7.38;;;1.90;;
37535;SDS011;23379;51.554;6.736;2024-03-02T09:47:31;4.88;;;2.05;;
37535;SDS011;23379;51.554;6.736;2024-03-02T09:49:57;8.07;;;2.10;;
37535;SDS011;23379;51.554;6.736;2024-03-02T09:52:22;3.72;;;1.35;;
37535;SDS011;23379;51.554;6.736;2024-03-02T09:54:48;3.28;;;1.27;;
37535;SDS011;23379;51.554;6.736;2024-03-02T09:57:14;3.30;;;1.75;;
37535;SDS011;23379;51.554;6.736;2024-03-02T09:59:40;6.57;;;1.67;;
37535;SDS011;23379;51.554;6.736;2024-03-02T10:02:05;5.22;;;1.50;;
37535;SDS011;23379;51.554;6.736;2024-03-02T10:04:32;4.78;;;1.50;;
37535;SDS011;23379;51.554;6.736;2024-03-02T10:09:38;2.17;;;1.30;;
37535;SDS011;23379;51.554;6.736;2024-03-02T10:12:05;3.08;;;1.25;;
37535;SDS011;23379;51.554;6.736;2024-03-02T10:14:31;2.95;;;1.42;;
37535;SDS011;23379;51.554;6.736;2024-03-02T10:17:07;4.70;;;1.27;;
37535;SDS011;23379;51.554;6.736;2024-03-02T10:19:34;3.33;;;1.42;;
37535;SDS011;23379;51.554;6.736;2024-03-02T10:22:06;3.08;;;1.35;;
37535;SDS011;23379;51.554;6.736;2024-03-02T10:24:44;3.42;;;1.30;;
37535;SDS011;23379;51.554;6.736;2024-03-02T10:27:14;1.73;;;1.17;;
37535;SDS011;23379;51.554;6.736;2024-03-02T10:29:47;2.45;;;1.30;;
37535;SDS011;23379;51.554;6.736;2024-03-02T10:32:13;1.70;;;1.10;;
37535;SDS011;23379;51.554;6.736;2024-03-02T10:34:42;4.68;;;1.80;;
37535;SDS011;23379;51.554;6.736;2024-03-02T10:37:10;6.35;;;1.42;;
37535;SDS011;23379;51.554;6.736;2024-03-02T10:39:36;5.93;;;1.75;;
37535;SDS011;23379;51.554;6.736;2024-03-02T10:42:04;4.07;;;1.60;;
37535;SDS011;23379;51.554;6.736;2024-03-02T10:44:31;4.18;;;1.20;;
37535;SDS011;23379;51.554;6.736;2024-03-02T10:47:01;4.90;;;1.30;;
37535;SDS011;23379;51.554;6.736;2024-03-02T10:49:29;1.40;;;1.00;;
37535;SDS011;23379;51.554;6.736;2024-03-02T10:51:57;3.33;;;1.10;;
37535;SDS011;23379;51.554;6.736;2024-03-02T10:54:23;2.42;;;1.10;;
37535;SDS011;23379;51.554;6.736;2024-03-02T10:56:51;3.10;;;1.02;;
37535;SDS011;23379;51.554;6.736;2024-03-02T11:01:50;3.47;;;1.17;;
37535;SDS011;23379;51.554;6.736;2024-03-02T11:04:18;3.85;;;1.50;;
37535;SDS011;23379;51.554;6.736;2024-03-02T11:06:48;2.88;;;1.10;;
37535;SDS011;23379;51.554;6.736;2024-03-02T11:09:14;3.42;;;1.00;;
37535;SDS011;23379;51.554;6.736;2024-03-02T11:11:43;1.15;;;0.85;;
37535;SDS011;23379;51.554;6.736;2024-03-02T11:14:12;2.70;;;1.02;;
37535;SDS011;23379;51.554;6.736;2024-03-02T11:16:39;2.47;;;1.20;;
37535;SDS011;23379;51.554;6.736;2024-03-02T11:19:07;2.53;;;1.38;;
37535;SDS011;23379;51.554;6.736;2024-03-02T11:21:35;1.52;;;1.08;;
37535;SDS011;23379;51.554;6.736;2024-03-02T11:27:02;1.65;;;0.77;;
37535;SDS011;23379;51.554;6.736;2024-03-02T11:32:06;1.75;;;0.85;;
37535;SDS011;23379;51.554;6.736;2024-03-02T11:34:39;2.97;;;0.95;;
37535;SDS011;23379;51.554;6.736;2024-03-02T11:37:10;1.35;;;0.73;;
37535;SDS011;23379;51.554;6.736;2024-03-02T11:39:36;1.85;;;0.82;;
37535;SDS011;23379;51.554;6.736;2024-03-02T11:42:05;1.13;;;0.52;;
37535;SDS011;23379;51.554;6.736;2024-03-02T11:44:32;2.25;;;0.50;;
37535;SDS011;23379;51.554;6.736;2024-03-02T11:46:58;1.35;;;0.70;;
37535;SDS011;23379;51.554;6.736;2024-03-02T11:52:07;1.77;;;0.52;;
37535;SDS011;23379;51.554;6.736;2024-03-02T11:54:34;1.02;;;0.73;;
37535;SDS011;23379;51.554;6.736;2024-03-02T11:57:01;2.10;;;0.90;;
37535;SDS011;23379;51.554;6.736;2024-03-02T11:59:28;2.67;;;1.02;;
37535;SDS011;23379;51.554;6.736;2024-03-02T12:01:54;2.22;;;0.90;;
37535;SDS011;23379;51.554;6.736;2024-03-02T12:04:21;5.43;;;1.10;;
37535;SDS011;23379;51.554;6.736;2024-03-02T12:06:48;3.75;;;0.93;;
37535;SDS011;23379;51.554;6.736;2024-03-02T12:09:27;3.42;;;1.10;;
37535;SDS011;23379;51.554;6.736;2024-03-02T12:14:28;1.80;;;1.00;;
37535;SDS011;23379;51.554;6.736;2024-03-02T12:16:54;2.00;;;1.20;;
37535;SDS011;23379;51.554;6.736;2024-03-02T12:19:20;2.42;;;0.90;;
37535;SDS011;23379;51.554;6.736;2024-03-02T12:21:46;1.70;;;1.00;;
37535;SDS011;23379;51.554;6.736;2024-03-02T12:24:11;3.58;;;1.60;;
37535;SDS011;23379;51.554;6.736;2024-03-02T12:26:36;2.58;;;1.25;;
37535;SDS011;23379;51.554;6.736;2024-03-02T12:29:02;2.45;;;1.02;;
37535;SDS011;23379;51.554;6.736;2024-03-02T12:31:27;2.40;;;1.10;;
37535;SDS011;23379;51.554;6.736;2024-03-02T12:33:53;1.77;;;0.80;;
37535;SDS011;23379;51.554;6.736;2024-03-02T12:36:19;1.50;;;0.90;;
37535;SDS011;23379;51.554;6.736;2024-03-02T12:38:44;1.75;;;1.02;;
37535;SDS011;23379;51.554;6.736;2024-03-02T12:41:11;5.32;;;1.52;;
37535;SDS011;23379;51.554;6.736;2024-03-02T12:43:40;3.03;;;1.10;;
37535;SDS011;23379;51.554;6.736;2024-03-02T12:46:05;4.35;;;1.08;;
37535;SDS011;23379;51.554;6.736;2024-03-02T12:48:31;6.65;;;0.95;;
37535;SDS011;23379;51.554;6.736;2024-03-02T12:50:56;3.75;;;1.45;;
37535;SDS011;23379;51.554;6.736;2024-03-02T12:53:22;2.65;;;1.00;;
37535;SDS011;23379;51.554;6.736;2024-03-02T12:55:47;4.03;;;1.45;;
37535;SDS011;23379;51.554;6.736;2024-03-02T12:58:20;1.98;;;1.20;;
37535;SDS011;23379;51.554;6.736;2024-03-02T13:00:47;1.58;;;1.00;;
37535;SDS011;23379;51.554;6.736;2024-03-02T13:03:13;3.08;;;1.48;;
37535;SDS011;23379;51.554;6.736;2024-03-02T13:05:39;3.67;;;1.52;;
37535;SDS011;23379;51.554;6.736;2024-03-02T13:08:05;2.88;;;1.15;;
37535;SDS011;23379;51.554;6.736;2024-03-02T13:10:32;1.77;;;1.02;;
37535;SDS011;23379;51.554;6.736;2024-03-02T13:12:58;2.75;;;1.23;;
37535;SDS011;23379;51.554;6.736;2024-03-02T13:15:23;1.35;;;1.10;;
37535;SDS011;23379;51.554;6.736;2024-03-02T13:17:51;2.10;;;1.23;;
37535;SDS011;23379;51.554;6.736;2024-03-02T13:20:17;1.45;;;1.20;;
37535;SDS011;23379;51.554;6.736;2024-03-02T13:22:44;3.72;;;1.48;;
37535;SDS011;23379;51.554;6.736;2024-03-02T13:25:09;2.17;;;1.27;;
37535;SDS011;23379;51.554;6.736;2024-03-02T13:27:35;2.53;;;1.40;;
37535;SDS011;23379;51.554;6.736;2024-03-02T13:30:02;2.55;;;1.40;;
37535;SDS011;23379;51.554;6.736;2024-03-02T13:32:28;1.88;;;1.20;;
37535;SDS011;23379;51.554;6.736;2024-03-02T13:34:53;2.35;;;1.10;;
37535;SDS011;23379;51.554;6.736;2024-03-02T13:37:19;2.05;;;1.20;;
37535;SDS011;23379;51.554;6.736;2024-03-02T13:39:45;3.83;;;1.48;;
37535;SDS011;23379;51.554;6.736;2024-03-02T13:42:11;1.88;;;1.00;;
37535;SDS011;23379;51.554;6.736;2024-03-02T13:44:39;2.92;;;1.27;;
37535;SDS011;23379;51.554;6.736;2024-03-02T13:47:04;3.20;;;1.60;;
37535;SDS011;23379;51.554;6.736;2024-03-02T13:49:30;2.17;;;1.30;;
37535;SDS011;23379;51.554;6.736;2024-03-02T13:52:01;1.40;;;1.30;;
37535;SDS011;23379;51.554;6.736;2024-03-02T13:54:29;2.40;;;1.10;;
37535;SDS011;23379;51.554;6.736;2024-03-02T13:56:55;2.42;;;1.33;;
37535;SDS011;23379;51.554;6.736;2024-03-02T13:59:23;4.40;;;1.40;;
37535;SDS011;23379;51.554;6.736;2024-03-02T14:01:49;1.98;;;1.20;;
37535;SDS011;23379;51.554;6.736;2024-03-02T14:04:15;1.27;;;1.17;;
37535;SDS011;23379;51.554;6.736;2024-03-02T14:06:40;1.55;;;1.20;;
37535;SDS011;23379;51.554;6.736;2024-03-02T14:09:08;1.63;;;1.20;;
37535;SDS011;23379;51.554;6.736;2024-03-02T14:11:34;2.53;;;1.27;;
37535;SDS011;23379;51.554;6.736;2024-03-02T14:13:59;1.95;;;1.20;;
37535;SDS011;23379;51.554;6.736;2024-03-02T14:16:24;2.20;;;1.25;;
37535;SDS011;23379;51.554;6.736;2024-03-02T14:18:50;1.40;;;1.27;;
37535;SDS011;23379;51.554;6.736;2024-03-02T14:21:15;4.72;;;1.88;;
37535;SDS011;23379;51.554;6.736;2024-03-02T14:23:41;2.75;;;2.03;;
37535;SDS011;23379;51.554;6.736;2024-03-02T14:26:06;2.83;;;1.90;;
37535;SDS011;23379;51.554;6.736;2024-03-02T14:28:31;7.50;;;4.50;;
37535;SDS011;23379;51.554;6.736;2024-03-02T14:30:57;6.00;;;3.13;;
37535;SDS011;23379;51.554;6.736;2024-03-02T14:33:23;3.08;;;2.30;;
37535;SDS011;23379;51.554;6.736;2024-03-02T14:35:49;1.95;;;1.20;;
37535;SDS011;23379;51.554;6.736;2024-03-02T14:38:14;2.85;;;1.13;;
37535;SDS011;23379;51.554;6.736;2024-03-02T14:40:40;2.83;;;1.27;;
37535;SDS011;23379;51.554;6.736;2024-03-02T14:43:05;0.93;;;0.93;;
37535;SDS011;23379;51.554;6.736;2024-03-02T14:45:31;3.65;;;1.05;;
37535;SDS011;23379;51.554;6.736;2024-03-02T14:47:56;3.13;;;1.33;;
37535;SDS011;23379;51.554;6.736;2024-03-02T14:50:24;2.13;;;1.33;;
37535;SDS011;23379;51.554;6.736;2024-03-02T14:52:53;1.50;;;1.17;;
37535;SDS011;23379;51.554;6.736;2024-03-02T14:55:18;2.55;;;1.40;;
37535;SDS011;23379;51.554;6.736;2024-03-02T14:57:43;4.97;;;2.15;;
37535;SDS011;23379;51.554;6.736;2024-03-02T15:00:09;2.88;;;1.35;;
37535;SDS011;23379;51.554;6.736;2024-03-02T15:02:36;1.33;;;1.02;;